Time;durP1;ratioP1;P1;durP2;ratioP2;P2;SDS_P1;SDS_P2;PMS_P1;PMS_P2;Temp;Humidity;BMP_temperature;BMP_pressure;BME280_temperature;BME280_humidity;BME280_pressure;Samples;Min_cycle;Max_cycle;Signal;HPM_P1;HPM_P2
2023/12/19 00:00:05;;;;;;;1.33;1.23;;;6.70;99.90;;;;;;5116020;28;20043;-72
2023/12/19 00:02:30;;;;;;;1.30;1.20;;;6.60;99.90;;;;;;5115833;28;20079;-74
2023/12/19 00:04:56;;;;;;;1.20;1.10;;;6.70;99.90;;;;;;5115863;28;20128;-72
2023/12/19 00:07:22;;;;;;;1.38;1.27;;;6.70;99.90;;;;;;5115816;28;20467;-72
2023/12/19 00:09:48;;;;;;;1.10;1.00;;;6.60;99.90;;;;;;5115869;28;20039;-72
2023/12/19 00:12:13;;;;;;;1.30;1.20;;;6.60;99.90;;;;;;5115686;28;20108;-71
2023/12/19 00:14:39;;;;;;;2.22;1.50;;;7.50;99.90;;;;;;5116174;28;20063;-73
2023/12/19 00:17:04;;;;;;;1.35;1.25;;;6.50;99.90;;;;;;5115048;28;20047;-73
2023/12/19 00:19:30;;;;;;;3.30;2.03;;;6.50;99.90;;;;;;5115568;28;20043;-75
2023/12/19 00:21:56;;;;;;;1.60;1.35;;;6.80;99.90;;;;;;5115628;28;20036;-73
2023/12/19 00:24:22;;;;;;;1.73;1.63;;;6.60;99.90;;;;;;5115459;28;20054;-74
2023/12/19 00:26:47;;;;;;;2.25;2.15;;;6.40;99.90;;;;;;5109026;28;20044;-74
2023/12/19 00:29:13;;;;;;;1.63;1.52;;;6.40;99.90;;;;;;5095042;28;20036;-71
2023/12/19 00:31:38;;;;;;;1.48;1.38;;;6.40;99.90;;;;;;5095361;28;20040;-72
2023/12/19 00:34:04;;;;;;;1.23;1.13;;;6.40;99.90;;;;;;5094955;28;20375;-74
2023/12/19 00:36:30;;;;;;;1.05;1.00;;;6.30;99.90;;;;;;5094941;28;20123;-73
2023/12/19 00:38:55;;;;;;;2.50;2.17;;;6.30;99.90;;;;;;5094731;28;20490;-73
2023/12/19 00:41:21;;;;;;;1.63;1.52;;;6.30;99.90;;;;;;5094794;28;20036;-75
2023/12/19 00:43:46;;;;;;;1.50;1.40;;;6.30;99.90;;;;;;5094670;28;20368;-72
2023/12/19 00:46:12;;;;;;;1.98;1.80;;;6.30;99.90;;;;;;5094750;28;20053;-73
2023/12/19 00:48:38;;;;;;;1.10;1.00;;;6.30;99.90;;;;;;5094692;28;20119;-72
2023/12/19 00:51:13;;;;;;;2.25;1.45;;;6.20;99.90;;;;;;5094665;28;20036;-73
2023/12/19 00:53:39;;;;;;;1.33;1.23;;;6.30;99.90;;;;;;5093519;28;20036;-72
2023/12/19 00:56:09;;;;;;;1.10;1.10;;;6.30;99.90;;;;;;5094408;28;20476;-73
2023/12/19 00:58:38;;;;;;;1.10;1.00;;;6.40;99.90;;;;;;5094860;28;20093;-73
2023/12/19 01:01:05;;;;;;;1.33;1.23;;;6.30;99.90;;;;;;5094416;28;20043;-75
2023/12/19 01:03:31;;;;;;;1.23;1.13;;;6.30;99.90;;;;;;5094325;28;20055;-73
2023/12/19 01:05:58;;;;;;;1.67;1.55;;;6.30;99.90;;;;;;5094410;28;20031;-75
2023/12/19 01:08:24;;;;;;;1.05;0.98;;;6.40;99.90;;;;;;5094342;28;20054;-74
2023/12/19 01:10:49;;;;;;;1.98;1.48;;;6.40;99.90;;;;;;5094277;28;20032;-72
2023/12/19 01:13:15;;;;;;;1.50;1.40;;;6.40;99.90;;;;;;5094280;28;20032;-71
2023/12/19 01:15:41;;;;;;;1.23;1.13;;;6.50;99.90;;;;;;5094176;28;20093;-72
2023/12/19 01:18:06;;;;;;;1.27;1.17;;;6.40;99.90;;;;;;5094031;28;20117;-71
2023/12/19 01:20:32;;;;;;;2.40;2.22;;;7.20;99.90;;;;;;5093895;28;20032;-72
2023/12/19 01:22:57;;;;;;;1.85;1.75;;;6.50;99.90;;;;;;5094438;28;20040;-73
2023/12/19 01:25:23;;;;;;;1.20;1.10;;;6.40;99.90;;;;;;5093968;28;20460;-72
2023/12/19 01:27:48;;;;;;;1.10;1.00;;;6.40;99.90;;;;;;5093723;28;20059;-72
2023/12/19 01:30:14;;;;;;;0.98;0.98;;;6.40;99.90;;;;;;5093679;28;20096;-73
2023/12/19 01:32:39;;;;;;;1.42;1.33;;;6.40;99.90;;;;;;5094332;28;20452;-72
2023/12/19 01:35:06;;;;;;;1.10;1.00;;;6.40;99.90;;;;;;5093953;28;20100;-72
2023/12/19 01:37:31;;;;;;;0.90;0.90;;;6.40;99.90;;;;;;5093944;28;20509;-72
2023/12/19 01:39:57;;;;;;;1.30;1.20;;;6.40;99.90;;;;;;5093904;28;20076;-72
2023/12/19 01:42:23;;;;;;;1.17;1.08;;;6.40;99.90;;;;;;5093886;28;20036;-72
2023/12/19 01:45:04;;;;;;;1.42;1.33;;;6.40;99.90;;;;;;5093800;28;20040;-72
2023/12/19 01:47:30;;;;;;;1.52;1.42;;;7.40;99.90;;;;;;5094046;28;20051;-74
2023/12/19 01:49:55;;;;;;;1.00;1.00;;;6.40;99.90;;;;;;5093870;28;20040;-74
2023/12/19 01:52:21;;;;;;;1.20;1.10;;;6.50;99.90;;;;;;5093750;28;20118;-74
2023/12/19 01:54:47;;;;;;;1.95;1.42;;;6.40;99.90;;;;;;5093769;28;20161;-73
2023/12/19 01:57:13;;;;;;;1.33;1.23;;;6.50;99.90;;;;;;5093894;28;20044;-74
2023/12/19 01:59:39;;;;;;;1.47;1.37;;;6.90;99.90;;;;;;5093737;28;20040;-72
2023/12/19 02:02:05;;;;;;;1.27;1.10;;;6.40;99.90;;;;;;5093568;28;20046;-73
2023/12/19 02:04:30;;;;;;;0.95;0.93;;;6.40;99.90;;;;;;5093559;28;20082;-74
2023/12/19 02:06:56;;;;;;;0.80;0.80;;;6.40;99.90;;;;;;5093607;28;20047;-74
2023/12/19 02:09:22;;;;;;;2.05;1.77;;;7.50;99.90;;;;;;5093367;28;20053;-72
2023/12/19 02:11:47;;;;;;;0.90;0.90;;;6.50;99.90;;;;;;5093679;28;20040;-76
2023/12/19 02:14:13;;;;;;;1.70;1.60;;;6.40;99.90;;;;;;5093748;28;20379;-74
2023/12/19 02:16:39;;;;;;;1.10;1.05;;;6.50;99.90;;;;;;5093602;28;20039;-76
2023/12/19 02:19:05;;;;;;;2.10;2.00;;;6.50;99.90;;;;;;5093773;28;20112;-75
2023/12/19 02:21:31;;;;;;;2.78;1.15;;;6.40;99.90;;;;;;5093574;28;20392;-74
2023/12/19 02:23:57;;;;;;;1.20;1.10;;;6.50;99.90;;;;;;5093456;28;20036;-71
2023/12/19 02:26:26;;;;;;;1.00;0.98;;;7.10;99.90;;;;;;5093539;28;20039;-75
2023/12/19 02:28:52;;;;;;;1.10;1.00;;;6.50;99.90;;;;;;5093407;28;20047;-74
2023/12/19 02:31:21;;;;;;;1.48;1.38;;;6.50;99.90;;;;;;5093450;28;20033;-73
2023/12/19 02:33:47;;;;;;;0.90;0.90;;;7.40;99.90;;;;;;5093333;28;20361;-72
2023/12/19 02:36:13;;;;;;;0.90;0.90;;;6.80;99.90;;;;;;5093298;28;20093;-75
2023/12/19 02:38:39;;;;;;;1.30;1.20;;;6.50;99.90;;;;;;5093295;28;20102;-73
2023/12/19 02:41:04;;;;;;;1.85;1.50;;;6.50;99.90;;;;;;5096660;28;20464;-74
2023/12/19 02:43:30;;;;;;;1.63;1.48;;;6.50;99.90;;;;;;5096949;28;20040;-72
2023/12/19 02:45:56;;;;;;;1.02;0.93;;;6.50;99.90;;;;;;5097025;28;20115;-75
2023/12/19 02:48:22;;;;;;;0.90;0.90;;;6.50;99.90;;;;;;5096898;28;20044;-72
2023/12/19 02:50:48;;;;;;;1.48;1.38;;;7.00;99.90;;;;;;5096942;28;20047;-72
2023/12/19 02:53:13;;;;;;;1.08;1.00;;;6.50;99.90;;;;;;5096794;28;20464;-73
2023/12/19 02:55:39;;;;;;;1.10;1.00;;;6.50;99.90;;;;;;5097556;28;20068;-72
2023/12/19 02:58:04;;;;;;;0.90;0.90;;;6.70;99.90;;;;;;5097219;28;20509;-72
2023/12/19 03:00:30;;;;;;;1.00;1.00;;;7.40;99.90;;;;;;5096807;28;20051;-73
2023/12/19 03:02:58;;;;;;;1.38;1.27;;;6.50;99.90;;;;;;5096779;28;20040;-73
2023/12/19 03:05:24;;;;;;;1.23;1.08;;;6.40;99.90;;;;;;5096584;28;20044;-74
2023/12/19 03:07:50;;;;;;;1.10;1.00;;;6.40;99.90;;;;;;5096277;28;20057;-75
2023/12/19 03:10:16;;;;;;;0.90;0.90;;;6.40;99.90;;;;;;5097044;28;20044;-74
2023/12/19 03:12:41;;;;;;;0.90;0.90;;;7.50;99.90;;;;;;5096603;28;20040;-74
2023/12/19 03:15:07;;;;;;;1.40;1.30;;;6.50;99.90;;;;;;5096581;28;20530;-72
2023/12/19 03:17:33;;;;;;;1.15;1.05;;;6.50;99.90;;;;;;5095965;28;20052;-73
2023/12/19 03:19:59;;;;;;;1.20;1.10;;;6.40;99.90;;;;;;5096633;28;20097;-74
2023/12/19 03:22:24;;;;;;;0.90;0.90;;;6.50;99.90;;;;;;5096331;28;20036;-72
2023/12/19 03:24:51;;;;;;;2.35;1.40;;;6.50;99.90;;;;;;5096218;28;20119;-74
2023/12/19 03:27:16;;;;;;;1.73;1.58;;;6.50;99.90;;;;;;5096259;28;20083;-74
2023/12/19 03:29:42;;;;;;;2.38;2.17;;;6.60;99.90;;;;;;5096269;28;20079;-74
2023/12/19 03:32:08;;;;;;;2.47;1.47;;;6.50;99.90;;;;;;5096198;28;20376;-73
2023/12/19 03:34:36;;;;;;;0.90;0.90;;;6.50;99.90;;;;;;5095881;28;20036;-73
2023/12/19 03:37:02;;;;;;;4.20;1.45;;;6.40;99.90;;;;;;5096027;28;20032;-73
2023/12/19 03:39:27;;;;;;;1.25;1.15;;;6.40;99.90;;;;;;5095990;28;20092;-74
2023/12/19 03:41:53;;;;;;;0.93;0.93;;;6.50;99.90;;;;;;5096376;28;20036;-74
2023/12/19 03:44:18;;;;;;;1.00;1.00;;;6.50;99.90;;;;;;5095804;28;20045;-71
2023/12/19 03:46:44;;;;;;;1.20;1.10;;;6.50;99.90;;;;;;5096165;28;20044;-73
2023/12/19 03:49:09;;;;;;;1.00;0.90;;;6.40;99.90;;;;;;5095788;28;20047;-72
2023/12/19 03:51:35;;;;;;;0.80;0.80;;;6.50;99.90;;;;;;5095044;28;20055;-73
2023/12/19 03:54:01;;;;;;;0.90;0.90;;;6.50;99.90;;;;;;5095731;28;20040;-75
2023/12/19 03:56:26;;;;;;;1.25;1.15;;;6.50;99.90;;;;;;5096196;28;20431;-73
2023/12/19 03:58:52;;;;;;;1.10;1.00;;;6.50;99.90;;;;;;5095984;28;20097;-72
2023/12/19 04:01:18;;;;;;;0.90;0.90;;;6.50;99.90;;;;;;5095666;28;20475;-71
2023/12/19 04:03:44;;;;;;;1.30;1.20;;;6.50;99.90;;;;;;5095555;28;20032;-71
2023/12/19 04:06:10;;;;;;;0.90;0.90;;;6.50;99.90;;;;;;5095327;28;20048;-73
2023/12/19 04:08:36;;;;;;;0.90;0.90;;;6.50;99.90;;;;;;5095126;28;20161;-73
2023/12/19 04:11:01;;;;;;;1.48;1.38;;;6.50;99.90;;;;;;5095449;28;20036;-72
2023/12/19 04:13:27;;;;;;;1.00;0.98;;;6.50;99.90;;;;;;5095409;28;20036;-71
2023/12/19 04:15:53;;;;;;;0.90;0.90;;;6.50;99.90;;;;;;5095389;28;20040;-75
2023/12/19 04:18:19;;;;;;;0.90;0.90;;;6.50;99.90;;;;;;5094942;28;20135;-72
2023/12/19 04:20:44;;;;;;;1.05;1.00;;;6.50;99.90;;;;;;5095276;28;20040;-74
2023/12/19 04:23:11;;;;;;;1.05;1.00;;;6.50;99.90;;;;;;5093779;28;20068;-72
2023/12/19 04:25:37;;;;;;;1.45;1.35;;;6.50;99.90;;;;;;5095183;28;20123;-75
2023/12/19 04:28:02;;;;;;;1.42;1.30;;;6.50;99.90;;;;;;5095102;28;20090;-73
2023/12/19 04:30:28;;;;;;;1.20;1.10;;;6.50;99.90;;;;;;5095136;28;20036;-73
2023/12/19 04:32:53;;;;;;;1.15;1.05;;;6.50;99.90;;;;;;5095015;28;20040;-72
2023/12/19 04:35:19;;;;;;;1.27;1.17;;;6.50;99.90;;;;;;5094950;28;20039;-74
2023/12/19 04:37:45;;;;;;;1.27;1.17;;;6.50;99.90;;;;;;5094666;28;20123;-74
2023/12/19 04:40:11;;;;;;;1.30;1.20;;;6.50;99.90;;;;;;5094859;28;20123;-73
2023/12/19 04:42:36;;;;;;;0.90;0.90;;;6.50;99.90;;;;;;5094781;28;20396;-74
2023/12/19 04:45:02;;;;;;;0.90;0.90;;;6.50;99.90;;;;;;5094808;28;20128;-73
2023/12/19 04:47:28;;;;;;;1.10;1.00;;;6.50;99.90;;;;;;5094801;28;20460;-71
2023/12/19 04:49:54;;;;;;;1.38;1.30;;;6.50;99.90;;;;;;5094724;28;20044;-72
2023/12/19 04:52:20;;;;;;;0.98;0.95;;;6.50;99.90;;;;;;5094640;28;20044;-73
2023/12/19 04:54:45;;;;;;;0.90;0.90;;;6.50;99.90;;;;;;5095040;28;20034;-72
2023/12/19 04:57:11;;;;;;;0.90;0.90;;;6.50;99.90;;;;;;5094647;28;20460;-73
2023/12/19 04:59:37;;;;;;;1.52;1.42;;;6.50;99.90;;;;;;5094824;28;20036;-73
2023/12/19 05:02:03;;;;;;;6.13;2.35;;;6.50;99.90;;;;;;5094476;28;20044;-73
2023/12/19 05:04:28;;;;;;;0.90;0.90;;;6.50;99.90;;;;;;5094503;28;20089;-73
2023/12/19 05:06:54;;;;;;;0.90;0.90;;;6.50;99.90;;;;;;5094289;28;20453;-72
2023/12/19 05:09:20;;;;;;;1.10;1.00;;;6.50;99.90;;;;;;5094814;28;20047;-75
2023/12/19 05:11:46;;;;;;;1.40;1.30;;;6.50;99.90;;;;;;5094352;28;20043;-71
2023/12/19 05:14:11;;;;;;;1.58;1.00;;;6.50;99.90;;;;;;5094582;28;20372;-72
2023/12/19 05:16:37;;;;;;;1.17;1.10;;;6.50;99.90;;;;;;5094140;28;20040;-75
2023/12/19 05:19:04;;;;;;;0.90;0.90;;;6.50;99.90;;;;;;5094139;28;20051;-72
2023/12/19 05:21:35;;;;;;;;;;;6.60;99.90;;;;;;5094472;28;20376;-69
2023/12/19 05:24:01;;;;;;;1.45;1.35;;;6.60;99.90;;;;;;5094427;28;19916;-70
2023/12/19 05:26:26;;;;;;;0.98;0.90;;;7.40;99.90;;;;;;5094033;28;20043;-71
2023/12/19 05:28:54;;;;;;;0.90;0.90;;;7.20;99.90;;;;;;5094039;28;20036;-72
2023/12/19 05:31:20;;;;;;;2.63;1.88;;;6.80;99.90;;;;;;5093994;28;20040;-74
2023/12/19 05:33:46;;;;;;;1.20;1.10;;;6.60;99.90;;;;;;5093948;28;20063;-74
2023/12/19 05:36:12;;;;;;;1.13;1.02;;;6.60;99.90;;;;;;5093923;28;20456;-71
2023/12/19 05:38:38;;;;;;;1.30;1.20;;;6.60;99.90;;;;;;5093891;28;20036;-73
2023/12/19 05:41:04;;;;;;;1.58;1.45;;;6.60;99.90;;;;;;5093932;28;20042;-73
2023/12/19 05:43:30;;;;;;;1.20;1.10;;;6.60;99.90;;;;;;5094348;28;20456;-73
2023/12/19 05:45:55;;;;;;;1.10;1.00;;;6.60;99.90;;;;;;5093795;28;20379;-73
2023/12/19 05:48:22;;;;;;;0.90;0.90;;;6.70;99.90;;;;;;5093890;28;20032;-75
2023/12/19 05:50:49;;;;;;;0.98;0.98;;;6.70;99.90;;;;;;5093706;28;20040;-74
2023/12/19 05:53:14;;;;;;;1.02;1.00;;;6.70;99.90;;;;;;5093727;28;20040;-70
2023/12/19 05:55:40;;;;;;;0.95;0.90;;;7.20;99.90;;;;;;5093759;28;20040;-73
2023/12/19 05:58:06;;;;;;;1.20;1.10;;;6.70;99.90;;;;;;5093846;28;20062;-74
2023/12/19 06:00:32;;;;;;;0.90;0.90;;;7.70;99.90;;;;;;5093750;28;20082;-70
2023/12/19 06:02:58;;;;;;;1.48;1.38;;;6.70;99.90;;;;;;5093404;28;20036;-74
2023/12/19 06:05:24;;;;;;;1.10;1.00;;;6.70;99.90;;;;;;5093483;28;20043;-72
2023/12/19 06:07:49;;;;;;;1.02;1.00;;;6.70;99.90;;;;;;5092447;28;20028;-73
2023/12/19 06:10:15;;;;;;;1.00;0.90;;;6.70;99.90;;;;;;5093552;28;20043;-74
2023/12/19 06:12:41;;;;;;;0.90;0.90;;;6.70;99.90;;;;;;5093854;28;20036;-72
2023/12/19 06:15:12;;;;;;;2.47;1.00;;;6.80;99.90;;;;;;5095469;28;20062;-73
2023/12/19 06:17:48;;;;;;;1.20;1.10;;;6.70;99.90;;;;;;5097101;28;20051;-78
2023/12/19 06:20:13;;;;;;;1.50;1.40;;;7.10;99.90;;;;;;5097665;28;20127;-75
2023/12/19 06:22:41;;;;;;;0.90;0.90;;;6.70;99.90;;;;;;5097748;28;20127;-75
2023/12/19 06:25:07;;;;;;;1.00;1.00;;;6.70;99.90;;;;;;5097631;28;20051;-72
2023/12/19 06:27:34;;;;;;;1.20;1.10;;;6.70;99.90;;;;;;5097288;28;20040;-77
2023/12/19 06:30:00;;;;;;;0.90;0.90;;;7.70;99.90;;;;;;5097213;28;20040;-74
2023/12/19 06:32:25;;;;;;;1.02;1.00;;;6.70;99.90;;;;;;5097297;28;20127;-71
2023/12/19 06:34:51;;;;;;;0.90;0.90;;;6.70;99.90;;;;;;5096903;28;20040;-79
2023/12/19 06:37:16;;;;;;;1.20;1.10;;;6.70;99.90;;;;;;5097809;28;20043;-71
2023/12/19 06:39:43;;;;;;;1.23;0.90;;;6.70;99.90;;;;;;5097146;28;20044;-73
2023/12/19 06:42:09;;;;;;;0.95;0.95;;;6.60;99.90;;;;;;5097272;28;20079;-71
2023/12/19 06:44:35;;;;;;;0.90;0.90;;;6.70;99.90;;;;;;5097181;28;20072;-68
2023/12/19 06:47:00;;;;;;;0.90;0.90;;;6.60;99.90;;;;;;5096978;28;20093;-71
2023/12/19 06:49:26;;;;;;;1.00;1.00;;;6.70;99.90;;;;;;5096591;28;20032;-71
2023/12/19 06:51:53;;;;;;;1.10;1.00;;;6.60;99.90;;;;;;5096901;28;20083;-72
2023/12/19 06:54:19;;;;;;;1.13;1.02;;;6.60;99.90;;;;;;5096861;28;20044;-70
2023/12/19 06:56:44;;;;;;;2.28;2.08;;;6.80;99.90;;;;;;5096780;28;20044;-73
2023/12/19 06:59:10;;;;;;;0.90;0.90;;;6.70;99.90;;;;;;5096754;28;20036;-75
2023/12/19 07:01:36;;;;;;;1.10;1.00;;;6.90;99.90;;;;;;5096513;28;20071;-68
2023/12/19 07:04:03;;;;;;;1.10;1.00;;;6.80;99.90;;;;;;5096558;28;20043;-70
2023/12/19 07:06:29;;;;;;;;;;;6.70;99.90;;;;;;5097079;28;20047;-71
2023/12/19 07:08:55;;;;;;;1.20;1.10;;;6.70;99.90;;;;;;5096605;28;20311;-73
2023/12/19 07:11:21;;;;;;;0.90;0.90;;;6.80;99.90;;;;;;5096401;28;20043;-71
2023/12/19 07:13:47;;;;;;;1.03;0.93;;;6.70;99.90;;;;;;5096401;28;20039;-72
2023/12/19 07:16:17;;;;;;;1.02;0.93;;;6.70;99.90;;;;;;5096098;28;20456;-73
2023/12/19 07:18:43;;;;;;;1.00;1.00;;;6.80;99.90;;;;;;5096601;28;20093;-70
2023/12/19 07:21:23;;;;;;;1.40;1.30;;;6.80;99.90;;;;;;5096844;28;20044;-72
2023/12/19 07:23:52;;;;;;;0.90;0.90;;;6.80;99.90;;;;;;5095704;28;20048;-74
2023/12/19 07:26:28;;;;;;;1.00;1.00;;;6.80;99.90;;;;;;5095000;28;20458;-70
2023/12/19 07:28:57;;;;;;;0.90;0.90;;;6.80;99.90;;;;;;5094111;28;20472;-70
2023/12/19 07:31:26;;;;;;;0.90;0.90;;;6.80;99.90;;;;;;5095348;28;20135;-71
2023/12/19 07:33:55;;;;;;;0.90;0.90;;;6.80;99.90;;;;;;5095846;28;20533;-73
2023/12/19 07:36:21;;;;;;;1.10;1.00;;;6.80;99.90;;;;;;5096312;28;20079;-76
2023/12/19 07:38:47;;;;;;;1.10;1.00;;;6.80;99.90;;;;;;5096237;28;20071;-74
2023/12/19 07:41:13;;;;;;;0.90;0.90;;;7.40;99.90;;;;;;5095998;28;20044;-73
2023/12/19 07:43:39;;;;;;;1.30;1.20;;;6.80;99.90;;;;;;5095679;28;20266;-73
2023/12/19 07:46:06;;;;;;;0.95;0.95;;;6.80;99.90;;;;;;5095836;28;20035;-72
2023/12/19 07:48:32;;;;;;;1.20;1.10;;;6.80;99.90;;;;;;5095441;28;20044;-75
2023/12/19 07:51:01;;;;;;;0.95;0.93;;;6.80;99.90;;;;;;5095589;28;20042;-74
2023/12/19 07:53:27;;;;;;;0.90;0.90;;;6.80;99.90;;;;;;5095743;28;20082;-72
2023/12/19 07:55:53;;;;;;;1.20;1.10;;;7.80;99.90;;;;;;5095751;28;20368;-72
2023/12/19 07:58:19;;;;;;;1.10;1.00;;;6.90;99.90;;;;;;5095556;28;20101;-75
2023/12/19 08:00:47;;;;;;;1.10;1.00;;;6.80;99.90;;;;;;5095521;28;20039;-74
2023/12/19 08:03:15;;;;;;;1.33;1.23;;;6.90;99.90;;;;;;5095444;28;20051;-72
2023/12/19 08:05:50;;;;;;;0.90;0.90;;;6.90;99.90;;;;;;5095449;28;20036;-75
2023/12/19 08:08:19;;;;;;;1.05;0.95;;;6.90;99.90;;;;;;5095327;28;20047;-71
2023/12/19 08:10:45;;;;;;;0.90;0.90;;;6.90;99.90;;;;;;5094990;28;20349;-71
2023/12/19 08:13:11;;;;;;;0.90;0.90;;;6.90;99.90;;;;;;5095400;28;20126;-74
2023/12/19 08:15:37;;;;;;;1.02;1.00;;;6.90;99.90;;;;;;5095242;28;20043;-75
2023/12/19 08:18:03;;;;;;;0.90;0.90;;;6.90;99.90;;;;;;5095104;28;20040;-72
2023/12/19 08:20:28;;;;;;;1.00;1.00;;;6.90;99.90;;;;;;5095353;28;20032;-72
2023/12/19 08:22:54;;;;;;;0.98;0.95;;;6.90;99.90;;;;;;5095105;28;20044;-71
2023/12/19 08:25:20;;;;;;;1.10;1.00;;;7.00;99.90;;;;;;5095067;28;20424;-74
2023/12/19 08:27:46;;;;;;;1.07;1.00;;;7.00;99.90;;;;;;5094710;28;20127;-74
2023/12/19 08:30:12;;;;;;;0.90;0.90;;;7.00;99.90;;;;;;5095230;28;20381;-73
2023/12/19 08:32:39;;;;;;;1.37;1.27;;;7.00;99.90;;;;;;5094817;28;20085;-73
2023/12/19 08:35:06;;;;;;;0.90;0.90;;;7.00;99.90;;;;;;5094902;28;20595;-72
2023/12/19 08:37:31;;;;;;;1.00;0.95;;;7.00;99.90;;;;;;5094602;28;20123;-74
2023/12/19 08:39:58;;;;;;;1.30;1.20;;;7.10;99.90;;;;;;5094763;28;20527;-74
2023/12/19 08:42:25;;;;;;;;;;;7.10;99.90;;;;;;5095093;28;20047;-73
2023/12/19 08:44:52;;;;;;;0.90;0.90;;;7.10;99.90;;;;;;5094709;28;20270;-74
2023/12/19 08:47:18;;;;;;;0.90;0.90;;;7.20;99.90;;;;;;5094237;28;20376;-76
2023/12/19 08:49:44;;;;;;;0.90;0.90;;;7.20;99.90;;;;;;5094665;28;20036;-78
2023/12/19 08:52:12;;;;;;;0.90;0.90;;;7.20;99.90;;;;;;5094602;28;20036;-75
2023/12/19 08:54:38;;;;;;;0.90;0.90;;;7.20;99.90;;;;;;5094470;28;20051;-71
2023/12/19 08:57:07;;;;;;;0.90;0.90;;;7.20;99.90;;;;;;5094108;28;20043;-73
2023/12/19 08:59:32;;;;;;;0.82;0.82;;;7.20;99.90;;;;;;5094759;28;20048;-71
2023/12/19 09:01:58;;;;;;;1.30;1.20;;;7.20;99.90;;;;;;5094414;28;20036;-73
2023/12/19 09:04:24;;;;;;;0.90;0.90;;;7.80;99.90;;;;;;5094264;28;20094;-72
2023/12/19 09:06:50;;;;;;;1.48;1.38;;;7.30;99.90;;;;;;5094317;28;20131;-74
2023/12/19 09:09:16;;;;;;;0.90;0.90;;;8.00;99.90;;;;;;5094291;28;20028;-75
2023/12/19 09:11:42;;;;;;;0.90;0.90;;;7.90;99.90;;;;;;5094149;28;20125;-81
2023/12/19 09:14:11;;;;;;;1.20;1.10;;;7.30;99.90;;;;;;5094256;28;20040;-70
2023/12/19 09:16:37;;;;;;;0.90;0.90;;;8.10;99.90;;;;;;5093984;28;20139;-70
2023/12/19 09:19:03;;;;;;;1.00;1.00;;;8.00;99.90;;;;;;5094122;28;20127;-73
2023/12/19 09:21:28;;;;;;;1.38;1.27;;;7.40;99.90;;;;;;5093759;28;20032;-73
2023/12/19 09:23:54;;;;;;;0.90;0.90;;;7.40;99.90;;;;;;5093424;28;20071;-70
2023/12/19 09:26:19;;;;;;;0.90;0.90;;;7.40;99.90;;;;;;5093287;28;20036;-71
2023/12/19 09:28:45;;;;;;;1.13;1.02;;;7.40;99.90;;;;;;5093890;28;20032;-70
2023/12/19 09:31:11;;;;;;;0.90;0.90;;;7.40;99.90;;;;;;5093747;28;20122;-72
2023/12/19 09:33:38;;;;;;;0.90;0.90;;;7.50;99.90;;;;;;5094233;28;20372;-73
2023/12/19 09:36:18;;;;;;;1.40;1.30;;;7.50;99.90;;;;;;5093849;28;20036;-79
2023/12/19 09:38:45;;;;;;;0.90;0.90;;;7.50;99.90;;;;;;5093882;28;20357;-72
2023/12/19 09:41:11;;;;;;;0.80;0.80;;;7.50;99.90;;;;;;5093812;28;20044;-69
2023/12/19 09:43:36;;;;;;;1.20;1.10;;;7.50;99.90;;;;;;5093779;28;20044;-74
2023/12/19 09:46:02;;;;;;;0.90;0.90;;;7.50;99.90;;;;;;5093643;28;20499;-72
2023/12/19 09:48:33;;;;;;;0.90;0.90;;;7.50;99.90;;;;;;5093735;28;20055;-75
2023/12/19 09:51:07;;;;;;;0.80;0.80;;;7.70;99.90;;;;;;5093237;28;20115;-70
2023/12/19 09:53:34;;;;;;;0.82;0.82;;;7.60;99.90;;;;;;5094201;28;20371;-74
2023/12/19 09:56:00;;;;;;;1.00;1.00;;;7.60;99.90;;;;;;5093691;28;20036;-73
2023/12/19 09:58:31;;;;;;;1.02;1.00;;;7.60;99.90;;;;;;5093962;28;20040;-67
2023/12/19 10:01:00;;;;;;;0.82;0.82;;;7.60;99.90;;;;;;5091627;28;20115;-68
2023/12/19 10:03:29;;;;;;;0.80;0.80;;;7.90;99.90;;;;;;5093747;28;20045;-79
2023/12/19 10:05:56;;;;;;;0.90;0.90;;;7.70;99.90;;;;;;5083240;28;20089;-80
2023/12/19 10:08:22;;;;;;;;;;;7.70;99.90;;;;;;5110814;28;20052;-74
2023/12/19 10:10:54;;;;;;;1.60;1.50;;;7.70;99.90;;;;;;5092636;28;20375;-72
2023/12/19 10:13:30;;;;;;;1.10;1.10;;;7.70;99.90;;;;;;5092047;28;20036;-74
2023/12/19 10:16:00;;;;;;;0.80;0.80;;;7.70;99.90;;;;;;5090753;28;20040;-72
2023/12/19 10:18:26;;;;;;;0.85;0.85;;;7.70;99.90;;;;;;5091294;28;20044;-72
2023/12/19 10:21:13;;;;;;;0.82;0.82;;;7.90;99.90;;;;;;5091202;28;20048;-73
2023/12/19 10:23:42;;;;;;;0.90;0.90;;;7.80;99.90;;;;;;5091197;28;20088;-74
2023/12/19 10:26:08;;;;;;;0.90;0.90;;;7.80;99.90;;;;;;5091068;28;20035;-73
2023/12/19 10:28:35;;;;;;;1.45;1.38;;;7.80;99.90;;;;;;5091341;28;20043;-72
2023/12/19 10:31:11;;;;;;;0.90;0.90;;;8.20;99.90;;;;;;5091652;28;20468;-73
2023/12/19 10:33:56;;;;;;;0.80;0.80;;;7.80;99.90;;;;;;5092556;28;20044;-73
2023/12/19 10:36:23;;;;;;;1.10;1.00;;;7.80;99.90;;;;;;5093323;28;20050;-74
2023/12/19 10:38:49;;;;;;;0.88;0.88;;;7.80;99.90;;;;;;5093466;28;20386;-71
2023/12/19 10:41:23;;;;;;;1.00;1.00;;;8.60;99.90;;;;;;5093368;28;20081;-73
2023/12/19 10:43:50;;;;;;;1.05;1.05;;;7.90;99.90;;;;;;5093175;28;20040;-70
2023/12/19 10:46:24;;;;;;;;;;;7.90;99.90;;;;;;5093560;28;20086;-74
2023/12/19 10:48:54;;;;;;;1.27;1.17;;;7.90;99.90;;;;;;5093007;28;20312;-74
2023/12/19 10:51:32;;;;;;;1.80;1.42;;;7.90;99.90;;;;;;5093365;28;20413;-73
2023/12/19 10:54:27;;;;;;;0.90;0.90;;;7.90;99.90;;;;;;5093109;28;20040;-72
2023/12/19 10:57:00;;;;;;;0.88;0.88;;;8.10;99.90;;;;;;5079944;28;20506;-73
2023/12/19 10:59:40;;;;;;;0.80;0.80;;;7.90;99.90;;;;;;5093299;28;20039;-74
2023/12/19 11:02:21;;;;;;;1.52;1.38;;;7.90;99.90;;;;;;5096007;28;20040;-71
2023/12/19 11:04:51;;;;;;;0.90;0.90;;;8.00;99.90;;;;;;5096657;28;20032;-71
2023/12/19 11:07:18;;;;;;;0.80;0.80;;;8.00;99.90;;;;;;5096992;28;20040;-73
2023/12/19 11:09:50;;;;;;;0.90;0.90;;;8.00;99.90;;;;;;5096843;28;20048;-72
2023/12/19 11:12:17;;;;;;;0.90;0.90;;;8.20;99.90;;;;;;5096253;28;20052;-72
2023/12/19 11:14:43;;;;;;;;;;;8.00;99.90;;;;;;5096894;28;20051;-74
2023/12/19 11:17:29;;;;;;;1.27;1.23;;;8.10;99.90;;;;;;5096777;28;19916;-73
2023/12/19 11:20:03;;;;;;;0.80;0.80;;;8.00;99.90;;;;;;5096753;28;20086;-73
2023/12/19 11:22:53;;;;;;;0.90;0.90;;;8.10;99.90;;;;;;5096308;28;20115;-74
2023/12/19 11:25:38;;;;;;;1.10;1.10;;;8.10;99.90;;;;;;5096162;28;20119;-71
2023/12/19 11:28:04;;;;;;;0.80;0.80;;;8.10;99.90;;;;;;5096322;28;20377;-72
2023/12/19 11:30:43;;;;;;;0.80;0.80;;;8.10;99.90;;;;;;5096510;28;20047;-74
2023/12/19 11:33:13;;;;;;;1.95;1.85;;;8.10;99.90;;;;;;5095269;28;20109;-71
2023/12/19 11:35:40;;;;;;;0.80;0.80;;;8.10;99.90;;;;;;5095995;28;20463;-72
2023/12/19 11:38:15;;;;;;;0.93;0.93;;;8.10;99.90;;;;;;5096066;28;20036;-71
2023/12/19 11:40:47;;;;;;;1.48;1.38;;;8.20;99.90;;;;;;5096349;28;20056;-72
2023/12/19 11:43:28;;;;;;;1.00;1.00;;;8.10;99.90;;;;;;5096263;28;20043;-71
2023/12/19 11:46:03;;;;;;;0.90;0.90;;;8.10;99.90;;;;;;5095895;28;20036;-70
2023/12/19 11:48:39;;;;;;;0.90;0.90;;;8.10;99.90;;;;;;5095652;28;20086;-71
2023/12/19 11:51:08;;;;;;;0.80;0.80;;;8.20;99.90;;;;;;5095840;28;20085;-73
2023/12/19 11:53:34;;;;;;;6.63;2.38;;;8.20;99.90;;;;;;5095920;28;20048;-71
2023/12/19 11:56:11;;;;;;;1.00;1.00;;;8.20;99.90;;;;;;5095692;28;20040;-72
2023/12/19 11:58:51;;;;;;;0.90;0.90;;;8.20;99.90;;;;;;5095718;28;20058;-71
2023/12/19 12:01:20;;;;;;;0.75;0.75;;;8.30;99.90;;;;;;5095279;28;20055;-71
2023/12/19 12:03:47;;;;;;;1.80;1.35;;;8.20;99.90;;;;;;5095145;28;20492;-71
2023/12/19 12:06:13;;;;;;;1.20;1.10;;;8.90;99.90;;;;;;5095454;28;20503;-73
2023/12/19 12:08:39;;;;;;;1.10;1.00;;;8.20;99.90;;;;;;5095405;28;20031;-73
2023/12/19 12:11:07;;;;;;;0.80;0.80;;;8.20;99.90;;;;;;5095449;28;20472;-74
2023/12/19 12:13:35;;;;;;;1.00;1.00;;;8.20;99.90;;;;;;5094662;28;20775;-72
2023/12/19 12:16:02;;;;;;;1.48;1.38;;;8.20;99.90;;;;;;5095659;28;20043;-71
2023/12/19 12:18:30;;;;;;;0.80;0.80;;;9.10;99.90;;;;;;5095074;28;20055;-72
2023/12/19 12:21:08;;;;;;;1.38;1.30;;;8.20;99.90;;;;;;5095181;28;20136;-70
2023/12/19 12:23:34;;;;;;;1.20;1.10;;;8.20;99.90;;;;;;5095281;28;20036;-73
2023/12/19 12:26:00;;;;;;;0.80;0.80;;;8.90;99.90;;;;;;5094958;28;20047;-74
2023/12/19 12:28:28;;;;;;;;;;;8.30;99.90;;;;;;5095497;28;20075;-71
2023/12/19 12:30:55;;;;;;;0.90;0.90;;;8.30;99.90;;;;;;5095043;28;19962;-71
2023/12/19 12:33:22;;;;;;;;;;;8.40;99.90;;;;;;5095178;28;20071;-72
2023/12/19 12:35:47;;;;;;;0.80;0.80;;;8.30;99.90;;;;;;5094921;28;19923;-72
2023/12/19 12:38:17;;;;;;;1.00;1.00;;;8.20;99.90;;;;;;5094811;28;20044;-74
2023/12/19 12:40:54;;;;;;;0.80;0.80;;;8.30;99.90;;;;;;5095182;28;20126;-73
2023/12/19 12:43:33;;;;;;;0.80;0.80;;;8.30;99.90;;;;;;5095183;28;20457;-71
2023/12/19 12:46:12;;;;;;;0.80;0.80;;;8.30;99.90;;;;;;5094747;28;20047;-70
2023/12/19 12:48:46;;;;;;;0.80;0.80;;;8.50;99.90;;;;;;5094834;28;20085;-74
2023/12/19 12:51:12;;;;;;;1.48;1.13;;;8.30;99.90;;;;;;5094564;28;20601;-71
2023/12/19 12:53:37;;;;;;;0.90;0.88;;;8.30;99.90;;;;;;5094771;28;20052;-70
2023/12/19 12:56:08;;;;;;;0.80;0.80;;;8.30;99.90;;;;;;5094600;28;20126;-72
2023/12/19 12:58:36;;;;;;;0.80;0.80;;;8.30;99.90;;;;;;5094493;28;20032;-74
2023/12/19 13:01:01;;;;;;;;;;;8.40;99.90;;;;;;5094838;28;20118;-73